sensor_id;sensor_type;location;lat;lon;timestamp;temperature;humidity
72320;SHT30;60269;52.502;16.732;2024-03-22T00:02:30;8.15;96.52
72320;SHT30;60269;52.502;16.732;2024-03-22T00:06:01;8.08;96.69
72320;SHT30;60269;52.502;16.732;2024-03-22T00:09:32;8.02;96.96
72320;SHT30;60269;52.502;16.732;2024-03-22T00:13:04;8.00;97.24
72320;SHT30;60269;52.502;16.732;2024-03-22T00:16:35;7.98;97.05
72320;SHT30;60269;52.502;16.732;2024-03-22T00:20:06;7.98;96.80
72320;SHT30;60269;52.502;16.732;2024-03-22T00:23:37;7.94;96.77
72320;SHT30;60269;52.502;16.732;2024-03-22T00:27:08;7.87;97.00
72320;SHT30;60269;52.502;16.732;2024-03-22T00:30:39;7.90;96.78
72320;SHT30;60269;52.502;16.732;2024-03-22T00:34:10;7.83;96.69
72320;SHT30;60269;52.502;16.732;2024-03-22T00:37:41;7.83;96.93
72320;SHT30;60269;52.502;16.732;2024-03-22T00:41:12;7.87;96.64
72320;SHT30;60269;52.502;16.732;2024-03-22T00:44:43;7.89;96.05
72320;SHT30;60269;52.502;16.732;2024-03-22T00:48:15;7.95;95.65
72320;SHT30;60269;52.502;16.732;2024-03-22T00:51:46;7.90;95.34
72320;SHT30;60269;52.502;16.732;2024-03-22T00:55:18;7.94;95.04
72320;SHT30;60269;52.502;16.732;2024-03-22T00:58:49;7.91;94.20
72320;SHT30;60269;52.502;16.732;2024-03-22T01:02:20;7.90;93.96
72320;SHT30;60269;52.502;16.732;2024-03-22T01:05:52;7.93;93.57
72320;SHT30;60269;52.502;16.732;2024-03-22T01:09:23;7.87;93.65
72320;SHT30;60269;52.502;16.732;2024-03-22T01:12:54;7.81;93.45
72320;SHT30;60269;52.502;16.732;2024-03-22T01:16:25;7.86;93.35
72320;SHT30;60269;52.502;16.732;2024-03-22T01:19:56;7.80;93.40
72320;SHT30;60269;52.502;16.732;2024-03-22T01:23:27;7.80;93.45
72320;SHT30;60269;52.502;16.732;2024-03-22T01:26:58;7.76;93.30
72320;SHT30;60269;52.502;16.732;2024-03-22T01:30:29;7.79;93.08
72320;SHT30;60269;52.502;16.732;2024-03-22T01:34:00;7.74;92.90
72320;SHT30;60269;52.502;16.732;2024-03-22T01:37:31;7.69;93.27
72320;SHT30;60269;52.502;16.732;2024-03-22T01:41:02;7.70;93.24
72320;SHT30;60269;52.502;16.732;2024-03-22T01:44:33;7.67;93.42
72320;SHT30;60269;52.502;16.732;2024-03-22T01:48:04;7.65;93.55
72320;SHT30;60269;52.502;16.732;2024-03-22T01:51:35;7.62;93.73
72320;SHT30;60269;52.502;16.732;2024-03-22T01:55:07;7.52;94.11
72320;SHT30;60269;52.502;16.732;2024-03-22T01:58:39;7.45;94.49
72320;SHT30;60269;52.502;16.732;2024-03-22T02:02:10;7.41;94.60
72320;SHT30;60269;52.502;16.732;2024-03-22T02:05:42;7.36;94.95
72320;SHT30;60269;52.502;16.732;2024-03-22T02:09:13;7.45;94.74
72320;SHT30;60269;52.502;16.732;2024-03-22T02:12:45;7.48;94.68
72320;SHT30;60269;52.502;16.732;2024-03-22T02:16:16;7.46;94.67
72320;SHT30;60269;52.502;16.732;2024-03-22T02:19:47;7.43;94.24
72320;SHT30;60269;52.502;16.732;2024-03-22T02:23:30;7.41;94.36
72320;SHT30;60269;52.502;16.732;2024-03-22T02:27:01;7.31;94.60
72320;SHT30;60269;52.502;16.732;2024-03-22T02:30:32;7.31;94.61
72320;SHT30;60269;52.502;16.732;2024-03-22T02:34:03;7.35;94.44
72320;SHT30;60269;52.502;16.732;2024-03-22T02:37:34;7.35;94.46
72320;SHT30;60269;52.502;16.732;2024-03-22T02:41:04;7.36;94.52
72320;SHT30;60269;52.502;16.732;2024-03-22T02:44:35;7.33;94.53
72320;SHT30;60269;52.502;16.732;2024-03-22T02:48:09;7.29;94.55
72320;SHT30;60269;52.502;16.732;2024-03-22T02:51:40;7.26;94.56
72320;SHT30;60269;52.502;16.732;2024-03-22T02:55:11;7.23;94.49
72320;SHT30;60269;52.502;16.732;2024-03-22T02:58:42;7.18;94.27
72320;SHT30;60269;52.502;16.732;2024-03-22T03:02:12;7.16;93.93
72320;SHT30;60269;52.502;16.732;2024-03-22T03:05:43;7.19;93.89
72320;SHT30;60269;52.502;16.732;2024-03-22T03:09:14;7.18;93.89
72320;SHT30;60269;52.502;16.732;2024-03-22T03:12:45;7.15;93.72
72320;SHT30;60269;52.502;16.732;2024-03-22T03:16:18;7.08;94.15
72320;SHT30;60269;52.502;16.732;2024-03-22T03:19:49;7.15;93.72
72320;SHT30;60269;52.502;16.732;2024-03-22T03:23:20;7.14;93.52
72320;SHT30;60269;52.502;16.732;2024-03-22T03:26:51;7.16;93.77
72320;SHT30;60269;52.502;16.732;2024-03-22T03:30:22;7.18;93.49
72320;SHT30;60269;52.502;16.732;2024-03-22T03:33:52;7.12;93.49
72320;SHT30;60269;52.502;16.732;2024-03-22T03:37:23;7.02;93.39
72320;SHT30;60269;52.502;16.732;2024-03-22T03:40:54;7.02;93.14
72320;SHT30;60269;52.502;16.732;2024-03-22T03:44:25;6.95;93.31
72320;SHT30;60269;52.502;16.732;2024-03-22T03:47:56;6.97;93.11
72320;SHT30;60269;52.502;16.732;2024-03-22T03:51:27;7.02;92.71
72320;SHT30;60269;52.502;16.732;2024-03-22T03:54:58;6.93;92.08
72320;SHT30;60269;52.502;16.732;2024-03-22T03:58:29;6.87;92.05
72320;SHT30;60269;52.502;16.732;2024-03-22T04:02:00;6.94;92.09
72320;SHT30;60269;52.502;16.732;2024-03-22T04:05:31;6.81;92.42
72320;SHT30;60269;52.502;16.732;2024-03-22T04:09:02;6.76;92.86
72320;SHT30;60269;52.502;16.732;2024-03-22T04:12:33;6.84;92.95
72320;SHT30;60269;52.502;16.732;2024-03-22T04:16:05;6.80;92.92
72320;SHT30;60269;52.502;16.732;2024-03-22T04:19:36;6.80;92.71
72320;SHT30;60269;52.502;16.732;2024-03-22T04:23:07;6.72;92.60
72320;SHT30;60269;52.502;16.732;2024-03-22T04:26:38;6.70;92.69
72320;SHT30;60269;52.502;16.732;2024-03-22T04:30:09;6.66;92.98
72320;SHT30;60269;52.502;16.732;2024-03-22T04:33:41;6.57;93.25
72320;SHT30;60269;52.502;16.732;2024-03-22T04:37:12;6.50;93.50
72320;SHT30;60269;52.502;16.732;2024-03-22T04:40:43;6.40;93.99
72320;SHT30;60269;52.502;16.732;2024-03-22T04:44:13;6.46;94.00
72320;SHT30;60269;52.502;16.732;2024-03-22T04:47:44;6.56;93.68
72320;SHT30;60269;52.502;16.732;2024-03-22T04:51:15;6.56;93.58
72320;SHT30;60269;52.502;16.732;2024-03-22T04:54:46;6.56;93.56
72320;SHT30;60269;52.502;16.732;2024-03-22T04:58:19;6.58;93.66
72320;SHT30;60269;52.502;16.732;2024-03-22T05:01:50;6.58;93.82
72320;SHT30;60269;52.502;16.732;2024-03-22T05:05:21;6.60;93.85
72320;SHT30;60269;52.502;16.732;2024-03-22T05:08:52;6.53;94.16
72320;SHT30;60269;52.502;16.732;2024-03-22T05:12:23;6.43;94.46
72320;SHT30;60269;52.502;16.732;2024-03-22T05:15:54;6.42;94.67
72320;SHT30;60269;52.502;16.732;2024-03-22T05:19:25;6.36;94.78
72320;SHT30;60269;52.502;16.732;2024-03-22T05:22:56;6.36;94.99
72320;SHT30;60269;52.502;16.732;2024-03-22T05:26:27;6.35;95.16
72320;SHT30;60269;52.502;16.732;2024-03-22T05:29:58;6.35;95.33
72320;SHT30;60269;52.502;16.732;2024-03-22T05:33:29;6.40;95.25
72320;SHT30;60269;52.502;16.732;2024-03-22T05:37:00;6.44;95.51
72320;SHT30;60269;52.502;16.732;2024-03-22T05:40:31;6.52;95.40
72320;SHT30;60269;52.502;16.732;2024-03-22T05:44:05;6.54;95.21
72320;SHT30;60269;52.502;16.732;2024-03-22T05:47:36;6.58;95.20
72320;SHT30;60269;52.502;16.732;2024-03-22T05:51:08;6.64;95.08
72320;SHT30;60269;52.502;16.732;2024-03-22T05:54:39;6.67;95.09
72320;SHT30;60269;52.502;16.732;2024-03-22T05:58:10;6.73;94.92
72320;SHT30;60269;52.502;16.732;2024-03-22T06:01:41;6.85;94.70
72320;SHT30;60269;52.502;16.732;2024-03-22T06:05:12;6.93;94.35
72320;SHT30;60269;52.502;16.732;2024-03-22T06:08:43;7.04;93.97
72320;SHT30;60269;52.502;16.732;2024-03-22T06:12:15;7.08;93.55
72320;SHT30;60269;52.502;16.732;2024-03-22T06:15:49;7.16;92.72
72320;SHT30;60269;52.502;16.732;2024-03-22T06:19:21;7.29;91.96
72320;SHT30;60269;52.502;16.732;2024-03-22T06:22:51;7.26;91.48
72320;SHT30;60269;52.502;16.732;2024-03-22T06:26:23;7.29;91.29
72320;SHT30;60269;52.502;16.732;2024-03-22T06:29:53;7.32;91.36
72320;SHT30;60269;52.502;16.732;2024-03-22T06:33:24;7.32;91.27
72320;SHT30;60269;52.502;16.732;2024-03-22T06:36:55;7.31;91.70
72320;SHT30;60269;52.502;16.732;2024-03-22T06:40:26;7.31;92.14
72320;SHT30;60269;52.502;16.732;2024-03-22T06:43:57;7.31;92.54
72320;SHT30;60269;52.502;16.732;2024-03-22T06:47:28;7.26;93.08
72320;SHT30;60269;52.502;16.732;2024-03-22T06:50:59;7.26;93.33
72320;SHT30;60269;52.502;16.732;2024-03-22T06:54:30;7.36;93.05
72320;SHT30;60269;52.502;16.732;2024-03-22T06:58:01;7.41;93.12
72320;SHT30;60269;52.502;16.732;2024-03-22T07:01:32;7.52;92.70
72320;SHT30;60269;52.502;16.732;2024-03-22T07:05:04;7.55;91.98
72320;SHT30;60269;52.502;16.732;2024-03-22T07:08:34;7.62;92.27
72320;SHT30;60269;52.502;16.732;2024-03-22T07:12:05;7.67;91.56
72320;SHT30;60269;52.502;16.732;2024-03-22T07:15:37;7.65;91.77
72320;SHT30;60269;52.502;16.732;2024-03-22T07:19:08;7.66;92.04
72320;SHT30;60269;52.502;16.732;2024-03-22T07:22:39;7.73;91.50
72320;SHT30;60269;52.502;16.732;2024-03-22T07:26:10;7.67;90.70
72320;SHT30;60269;52.502;16.732;2024-03-22T07:29:41;7.80;90.78
72320;SHT30;60269;52.502;16.732;2024-03-22T07:33:12;8.05;90.51
72320;SHT30;60269;52.502;16.732;2024-03-22T07:36:48;8.11;90.25
72320;SHT30;60269;52.502;16.732;2024-03-22T07:40:19;8.27;89.72
72320;SHT30;60269;52.502;16.732;2024-03-22T07:43:50;8.35;88.99
72320;SHT30;60269;52.502;16.732;2024-03-22T07:47:21;8.66;88.45
72320;SHT30;60269;52.502;16.732;2024-03-22T07:50:58;8.66;87.23
72320;SHT30;60269;52.502;16.732;2024-03-22T07:54:29;8.75;86.87
72320;SHT30;60269;52.502;16.732;2024-03-22T07:58:00;8.72;86.76
72320;SHT30;60269;52.502;16.732;2024-03-22T08:01:31;8.89;86.38
72320;SHT30;60269;52.502;16.732;2024-03-22T08:05:03;8.83;86.13
72320;SHT30;60269;52.502;16.732;2024-03-22T08:08:34;8.87;86.33
72320;SHT30;60269;52.502;16.732;2024-03-22T08:12:06;9.00;86.04
72320;SHT30;60269;52.502;16.732;2024-03-22T08:15:37;8.72;86.33
72320;SHT30;60269;52.502;16.732;2024-03-22T08:19:07;8.77;86.97
72320;SHT30;60269;52.502;16.732;2024-03-22T08:22:38;8.90;86.04
72320;SHT30;60269;52.502;16.732;2024-03-22T08:26:09;9.14;85.35
72320;SHT30;60269;52.502;16.732;2024-03-22T08:29:40;9.08;85.43
72320;SHT30;60269;52.502;16.732;2024-03-22T08:33:11;9.08;85.48
72320;SHT30;60269;52.502;16.732;2024-03-22T08:36:43;9.37;85.50
72320;SHT30;60269;52.502;16.732;2024-03-22T08:40:14;9.39;84.57
72320;SHT30;60269;52.502;16.732;2024-03-22T08:43:45;9.56;84.23
72320;SHT30;60269;52.502;16.732;2024-03-22T08:47:16;9.37;84.68
72320;SHT30;60269;52.502;16.732;2024-03-22T08:50:47;9.55;84.57
72320;SHT30;60269;52.502;16.732;2024-03-22T08:54:18;9.75;83.37
72320;SHT30;60269;52.502;16.732;2024-03-22T08:57:49;10.13;81.92
72320;SHT30;60269;52.502;16.732;2024-03-22T09:01:19;10.30;81.79
72320;SHT30;60269;52.502;16.732;2024-03-22T09:04:50;10.47;81.72
72320;SHT30;60269;52.502;16.732;2024-03-22T09:08:22;10.68;80.43
72320;SHT30;60269;52.502;16.732;2024-03-22T09:11:53;10.75;79.97
72320;SHT30;60269;52.502;16.732;2024-03-22T09:15:24;10.93;80.23
72320;SHT30;60269;52.502;16.732;2024-03-22T09:18:55;11.06;79.96
72320;SHT30;60269;52.502;16.732;2024-03-22T09:22:26;11.10;79.96
72320;SHT30;60269;52.502;16.732;2024-03-22T09:25:57;11.10;78.22
72320;SHT30;60269;52.502;16.732;2024-03-22T09:29:28;11.13;78.77
72320;SHT30;60269;52.502;16.732;2024-03-22T09:32:59;11.53;79.55
72320;SHT30;60269;52.502;16.732;2024-03-22T09:36:30;11.64;77.31
72320;SHT30;60269;52.502;16.732;2024-03-22T09:40:05;11.68;75.78
72320;SHT30;60269;52.502;16.732;2024-03-22T09:43:38;12.01;75.49
72320;SHT30;60269;52.502;16.732;2024-03-22T09:47:10;11.80;76.10
72320;SHT30;60269;52.502;16.732;2024-03-22T09:50:41;11.95;76.69
72320;SHT30;60269;52.502;16.732;2024-03-22T09:54:12;11.44;76.65
72320;SHT30;60269;52.502;16.732;2024-03-22T09:57:44;11.80;77.38
72320;SHT30;60269;52.502;16.732;2024-03-22T10:01:16;12.33;75.43
72320;SHT30;60269;52.502;16.732;2024-03-22T10:04:47;12.08;76.01
72320;SHT30;60269;52.502;16.732;2024-03-22T10:08:18;11.84;75.12
72320;SHT30;60269;52.502;16.732;2024-03-22T10:11:49;11.84;75.61
72320;SHT30;60269;52.502;16.732;2024-03-22T10:15:20;11.66;76.01
72320;SHT30;60269;52.502;16.732;2024-03-22T10:18:51;11.54;76.30
72320;SHT30;60269;52.502;16.732;2024-03-22T10:22:22;11.29;78.08
72320;SHT30;60269;52.502;16.732;2024-03-22T10:25:56;11.46;79.22
72320;SHT30;60269;52.502;16.732;2024-03-22T10:29:28;11.34;78.81
72320;SHT30;60269;52.502;16.732;2024-03-22T10:32:59;11.16;78.79
72320;SHT30;60269;52.502;16.732;2024-03-22T10:36:31;11.13;80.54
72320;SHT30;60269;52.502;16.732;2024-03-22T10:40:03;11.12;79.89
72320;SHT30;60269;52.502;16.732;2024-03-22T10:43:43;11.27;78.90
72320;SHT30;60269;52.502;16.732;2024-03-22T10:47:15;11.40;76.77
72320;SHT30;60269;52.502;16.732;2024-03-22T10:50:49;11.59;77.43
72320;SHT30;60269;52.502;16.732;2024-03-22T10:54:21;11.33;77.47
72320;SHT30;60269;52.502;16.732;2024-03-22T10:57:53;11.27;77.93
72320;SHT30;60269;52.502;16.732;2024-03-22T11:01:25;10.85;81.29
72320;SHT30;60269;52.502;16.732;2024-03-22T11:04:57;10.36;82.17
72320;SHT30;60269;52.502;16.732;2024-03-22T11:08:29;10.09;83.97
72320;SHT30;60269;52.502;16.732;2024-03-22T11:12:03;9.90;84.98
72320;SHT30;60269;52.502;16.732;2024-03-22T11:15:34;9.81;85.69
72320;SHT30;60269;52.502;16.732;2024-03-22T11:19:05;9.75;85.12
72320;SHT30;60269;52.502;16.732;2024-03-22T11:22:37;9.74;86.62
72320;SHT30;60269;52.502;16.732;2024-03-22T11:26:08;9.72;87.06
72320;SHT30;60269;52.502;16.732;2024-03-22T11:29:41;9.95;86.65
72320;SHT30;60269;52.502;16.732;2024-03-22T11:33:12;9.95;86.96
72320;SHT30;60269;52.502;16.732;2024-03-22T11:36:43;9.90;87.34
72320;SHT30;60269;52.502;16.732;2024-03-22T11:40:14;9.90;88.19
72320;SHT30;60269;52.502;16.732;2024-03-22T11:43:46;10.02;87.29
72320;SHT30;60269;52.502;16.732;2024-03-22T11:47:18;10.20;84.61
72320;SHT30;60269;52.502;16.732;2024-03-22T11:50:50;10.34;84.23
72320;SHT30;60269;52.502;16.732;2024-03-22T11:54:21;10.48;84.48
72320;SHT30;60269;52.502;16.732;2024-03-22T11:57:52;10.62;83.63
72320;SHT30;60269;52.502;16.732;2024-03-22T12:01:23;10.71;84.32
72320;SHT30;60269;52.502;16.732;2024-03-22T12:04:54;10.82;83.37
72320;SHT30;60269;52.502;16.732;2024-03-22T12:08:25;10.86;82.87
72320;SHT30;60269;52.502;16.732;2024-03-22T12:11:56;10.76;81.54
72320;SHT30;60269;52.502;16.732;2024-03-22T12:15:28;10.78;82.09
72320;SHT30;60269;52.502;16.732;2024-03-22T12:18:59;10.96;82.63
72320;SHT30;60269;52.502;16.732;2024-03-22T12:22:30;10.98;81.89
72320;SHT30;60269;52.502;16.732;2024-03-22T12:26:01;11.08;82.35
72320;SHT30;60269;52.502;16.732;2024-03-22T12:29:33;11.05;81.45
72320;SHT30;60269;52.502;16.732;2024-03-22T12:33:04;11.03;82.11
72320;SHT30;60269;52.502;16.732;2024-03-22T12:36:39;10.95;81.01
72320;SHT30;60269;52.502;16.732;2024-03-22T12:40:10;11.02;81.92
72320;SHT30;60269;52.502;16.732;2024-03-22T12:43:42;11.02;82.00
72320;SHT30;60269;52.502;16.732;2024-03-22T12:47:14;11.01;81.05
72320;SHT30;60269;52.502;16.732;2024-03-22T12:50:45;11.12;80.21
72320;SHT30;60269;52.502;16.732;2024-03-22T12:54:16;11.23;79.66
72320;SHT30;60269;52.502;16.732;2024-03-22T12:57:49;11.30;78.46
72320;SHT30;60269;52.502;16.732;2024-03-22T13:01:20;11.39;79.90
72320;SHT30;60269;52.502;16.732;2024-03-22T13:04:52;11.41;78.14
72320;SHT30;60269;52.502;16.732;2024-03-22T13:08:24;11.51;78.25
72320;SHT30;60269;52.502;16.732;2024-03-22T13:11:55;11.53;78.74
72320;SHT30;60269;52.502;16.732;2024-03-22T13:15:26;11.60;77.23
72320;SHT30;60269;52.502;16.732;2024-03-22T13:18:57;11.67;77.74
72320;SHT30;60269;52.502;16.732;2024-03-22T13:22:28;11.75;77.98
72320;SHT30;60269;52.502;16.732;2024-03-22T13:26:03;11.70;78.54
72320;SHT30;60269;52.502;16.732;2024-03-22T13:29:34;11.70;78.47
72320;SHT30;60269;52.502;16.732;2024-03-22T13:33:05;11.74;78.52
72320;SHT30;60269;52.502;16.732;2024-03-22T13:36:38;11.84;78.64
72320;SHT30;60269;52.502;16.732;2024-03-22T13:40:09;11.82;77.92
72320;SHT30;60269;52.502;16.732;2024-03-22T13:43:41;11.97;77.54
72320;SHT30;60269;52.502;16.732;2024-03-22T13:47:15;11.92;77.56
72320;SHT30;60269;52.502;16.732;2024-03-22T13:50:46;11.89;78.78
72320;SHT30;60269;52.502;16.732;2024-03-22T13:54:17;11.99;77.83
72320;SHT30;60269;52.502;16.732;2024-03-22T13:57:48;11.99;77.07
72320;SHT30;60269;52.502;16.732;2024-03-22T14:01:19;12.02;77.18
72320;SHT30;60269;52.502;16.732;2024-03-22T14:04:50;11.97;77.79
72320;SHT30;60269;52.502;16.732;2024-03-22T14:08:21;11.97;77.49
72320;SHT30;60269;52.502;16.732;2024-03-22T14:11:52;11.91;76.50
72320;SHT30;60269;52.502;16.732;2024-03-22T14:15:23;11.92;77.17
72320;SHT30;60269;52.502;16.732;2024-03-22T14:18:58;11.94;77.55
72320;SHT30;60269;52.502;16.732;2024-03-22T14:22:29;11.89;78.41
72320;SHT30;60269;52.502;16.732;2024-03-22T14:26:01;11.98;77.02
72320;SHT30;60269;52.502;16.732;2024-03-22T14:29:32;12.11;76.28
72320;SHT30;60269;52.502;16.732;2024-03-22T14:33:03;12.04;76.46
72320;SHT30;60269;52.502;16.732;2024-03-22T14:36:35;11.99;75.85
72320;SHT30;60269;52.502;16.732;2024-03-22T14:40:06;11.95;75.35
72320;SHT30;60269;52.502;16.732;2024-03-22T14:43:41;11.88;77.07
72320;SHT30;60269;52.502;16.732;2024-03-22T14:47:12;11.64;77.33
72320;SHT30;60269;52.502;16.732;2024-03-22T14:50:43;11.56;79.68
72320;SHT30;60269;52.502;16.732;2024-03-22T14:54:15;11.24;80.90
72320;SHT30;60269;52.502;16.732;2024-03-22T14:57:46;11.16;81.75
72320;SHT30;60269;52.502;16.732;2024-03-22T15:01:17;11.24;81.14
72320;SHT30;60269;52.502;16.732;2024-03-22T15:04:49;11.34;80.13
72320;SHT30;60269;52.502;16.732;2024-03-22T15:08:21;11.41;79.71
72320;SHT30;60269;52.502;16.732;2024-03-22T15:11:52;11.49;78.88
72320;SHT30;60269;52.502;16.732;2024-03-22T15:15:25;11.57;78.74
72320;SHT30;60269;52.502;16.732;2024-03-22T15:18:56;11.54;78.43
72320;SHT30;60269;52.502;16.732;2024-03-22T15:22:27;11.49;79.67
72320;SHT30;60269;52.502;16.732;2024-03-22T15:25:58;11.10;82.61
72320;SHT30;60269;52.502;16.732;2024-03-22T15:29:29;10.64;86.18
72320;SHT30;60269;52.502;16.732;2024-03-22T15:33:01;10.32;88.07
72320;SHT30;60269;52.502;16.732;2024-03-22T15:36:34;10.14;89.14
72320;SHT30;60269;52.502;16.732;2024-03-22T15:40:07;10.10;88.28
72320;SHT30;60269;52.502;16.732;2024-03-22T15:43:38;9.93;90.42
72320;SHT30;60269;52.502;16.732;2024-03-22T15:47:09;9.96;90.33
72320;SHT30;60269;52.502;16.732;2024-03-22T15:50:41;9.85;91.30
72320;SHT30;60269;52.502;16.732;2024-03-22T15:54:12;9.86;91.65
72320;SHT30;60269;52.502;16.732;2024-03-22T15:57:43;9.78;92.47
72320;SHT30;60269;52.502;16.732;2024-03-22T16:01:14;9.75;92.94
72320;SHT30;60269;52.502;16.732;2024-03-22T16:04:45;9.78;93.17
72320;SHT30;60269;52.502;16.732;2024-03-22T16:08:16;9.78;92.84
72320;SHT30;60269;52.502;16.732;2024-03-22T16:11:47;9.71;93.36
72320;SHT30;60269;52.502;16.732;2024-03-22T16:15:18;9.81;92.91
72320;SHT30;60269;52.502;16.732;2024-03-22T16:18:49;9.83;93.03
72320;SHT30;60269;52.502;16.732;2024-03-22T16:22:20;9.85;92.87
72320;SHT30;60269;52.502;16.732;2024-03-22T16:25:51;9.75;93.46
72320;SHT30;60269;52.502;16.732;2024-03-22T16:29:22;9.63;93.96
72320;SHT30;60269;52.502;16.732;2024-03-22T16:32:55;9.59;94.28
72320;SHT30;60269;52.502;16.732;2024-03-22T16:36:26;9.52;94.62
72320;SHT30;60269;52.502;16.732;2024-03-22T16:39:57;9.48;94.89
72320;SHT30;60269;52.502;16.732;2024-03-22T16:43:28;9.47;95.09
72320;SHT30;60269;52.502;16.732;2024-03-22T16:46:59;9.44;95.22
72320;SHT30;60269;52.502;16.732;2024-03-22T16:50:30;9.44;95.13
72320;SHT30;60269;52.502;16.732;2024-03-22T16:54:01;9.42;95.23
72320;SHT30;60269;52.502;16.732;2024-03-22T16:57:33;9.45;95.07
72320;SHT30;60269;52.502;16.732;2024-03-22T17:01:04;9.39;95.61
72320;SHT30;60269;52.502;16.732;2024-03-22T17:04:36;9.39;95.71
72320;SHT30;60269;52.502;16.732;2024-03-22T17:08:09;9.37;95.95
72320;SHT30;60269;52.502;16.732;2024-03-22T17:11:40;9.38;96.01
72320;SHT30;60269;52.502;16.732;2024-03-22T17:15:11;9.37;96.14
72320;SHT30;60269;52.502;16.732;2024-03-22T17:18:42;9.38;95.99
72320;SHT30;60269;52.502;16.732;2024-03-22T17:22:13;9.38;95.84
72320;SHT30;60269;52.502;16.732;2024-03-22T17:25:44;9.38;96.11
72320;SHT30;60269;52.502;16.732;2024-03-22T17:29:15;9.38;96.12
72320;SHT30;60269;52.502;16.732;2024-03-22T17:32:46;9.35;96.30
72320;SHT30;60269;52.502;16.732;2024-03-22T17:36:18;9.37;96.20
72320;SHT30;60269;52.502;16.732;2024-03-22T17:39:49;9.41;95.94
72320;SHT30;60269;52.502;16.732;2024-03-22T17:43:20;9.42;96.03
72320;SHT30;60269;52.502;16.732;2024-03-22T17:46:53;9.44;95.61
72320;SHT30;60269;52.502;16.732;2024-03-22T17:50:24;9.44;95.60
72320;SHT30;60269;52.502;16.732;2024-03-22T17:53:55;9.45;95.42
72320;SHT30;60269;52.502;16.732;2024-03-22T17:57:26;9.48;95.22
72320;SHT30;60269;52.502;16.732;2024-03-22T18:00:59;9.47;94.79
72320;SHT30;60269;52.502;16.732;2024-03-22T18:04:30;9.47;94.55
72320;SHT30;60269;52.502;16.732;2024-03-22T18:08:01;9.47;95.01
72320;SHT30;60269;52.502;16.732;2024-03-22T18:11:32;9.44;95.00
72320;SHT30;60269;52.502;16.732;2024-03-22T18:15:03;9.44;95.27
72320;SHT30;60269;52.502;16.732;2024-03-22T18:18:34;9.42;95.36
72320;SHT30;60269;52.502;16.732;2024-03-22T18:22:09;9.34;95.69
72320;SHT30;60269;52.502;16.732;2024-03-22T18:25:40;9.31;95.93
72320;SHT30;60269;52.502;16.732;2024-03-22T18:29:11;9.39;95.06
72320;SHT30;60269;52.502;16.732;2024-03-22T18:32:42;9.35;95.41
72320;SHT30;60269;52.502;16.732;2024-03-22T18:36:13;9.38;95.39
72320;SHT30;60269;52.502;16.732;2024-03-22T18:39:44;9.30;95.70
72320;SHT30;60269;52.502;16.732;2024-03-22T18:43:16;9.38;95.43
72320;SHT30;60269;52.502;16.732;2024-03-22T18:46:47;9.31;95.92
72320;SHT30;60269;52.502;16.732;2024-03-22T18:50:18;9.31;95.85
72320;SHT30;60269;52.502;16.732;2024-03-22T18:53:50;9.34;95.65
72320;SHT30;60269;52.502;16.732;2024-03-22T18:57:21;9.35;95.58
72320;SHT30;60269;52.502;16.732;2024-03-22T19:00:52;9.30;96.05
72320;SHT30;60269;52.502;16.732;2024-03-22T19:04:23;9.28;96.17
72320;SHT30;60269;52.502;16.732;2024-03-22T19:07:54;9.31;96.26
72320;SHT30;60269;52.502;16.732;2024-03-22T19:11:25;9.31;96.06
72320;SHT30;60269;52.502;16.732;2024-03-22T19:14:56;9.28;96.44
72320;SHT30;60269;52.502;16.732;2024-03-22T19:18:27;9.28;96.37
72320;SHT30;60269;52.502;16.732;2024-03-22T19:21:58;9.30;96.40
72320;SHT30;60269;52.502;16.732;2024-03-22T19:25:29;9.30;96.45
72320;SHT30;60269;52.502;16.732;2024-03-22T19:29:00;9.27;96.49
72320;SHT30;60269;52.502;16.732;2024-03-22T19:32:31;9.30;96.52
72320;SHT30;60269;52.502;16.732;2024-03-22T19:36:02;9.26;96.60
72320;SHT30;60269;52.502;16.732;2024-03-22T19:39:35;9.23;96.87
72320;SHT30;60269;52.502;16.732;2024-03-22T19:43:06;9.24;96.95
72320;SHT30;60269;52.502;16.732;2024-03-22T19:46:38;9.21;97.04
72320;SHT30;60269;52.502;16.732;2024-03-22T19:50:09;9.24;97.24
72320;SHT30;60269;52.502;16.732;2024-03-22T19:53:40;9.24;97.05
72320;SHT30;60269;52.502;16.732;2024-03-22T19:57:11;9.23;97.11
72320;SHT30;60269;52.502;16.732;2024-03-22T20:00:43;9.20;97.39
72320;SHT30;60269;52.502;16.732;2024-03-22T20:04:14;9.20;97.38
72320;SHT30;60269;52.502;16.732;2024-03-22T20:07:45;9.20;97.46
72320;SHT30;60269;52.502;16.732;2024-03-22T20:11:16;9.20;97.50
72320;SHT30;60269;52.502;16.732;2024-03-22T20:14:47;9.21;97.45
72320;SHT30;60269;52.502;16.732;2024-03-22T20:18:19;9.16;97.67
72320;SHT30;60269;52.502;16.732;2024-03-22T20:21:52;9.18;97.63
72320;SHT30;60269;52.502;16.732;2024-03-22T20:25:23;9.18;97.58
72320;SHT30;60269;52.502;16.732;2024-03-22T20:28:54;9.18;97.78
72320;SHT30;60269;52.502;16.732;2024-03-22T20:32:28;9.20;97.75
72320;SHT30;60269;52.502;16.732;2024-03-22T20:35:59;9.18;97.81
